ROMMA est une association bénévole à but non lucratif. Votre soutien est indispensable : ADHERER à ROMMA ou FAIRE un DON

Taninges - (74, Haute-Savoie)

Vallée du Giffre (635 m)   Longitude: 06° 35' 38" E   Latitude: 46° 06' 21" N Station romma n°98
 

Détail journalier du     <<     >>

Température Precipitation Humidité Pression Vent Dir Rafale Dir. rafale Ensol.
Heure (°C) (mm) (%) (hPa) (km/h) (km/h) (min)
01:00 8.3090101403SE0
02:00 7.5092101402SE0
03:00 7.0093101403SE0
04:00 6.3094101403SE0
05:00 6.2095101403SE0
06:00 5.4095101403SE0
07:00 5.9096101405SE25
08:00 8.7096101303SE40
09:00 12.8086101303SE55
10:00 16.307010132SSE15OSO60
11:00 18.406010128OSO18SO60
12:00 19.9060101211SO21OSO60
13:00 20.9053101211SO24SO55
14:00 21.9048101110OSO23OSO60
15:00 22.404810119ONO21NNO60
16:00 22.804610119ONO23O50
17:00 22.4041101012O24O40
18:00 22.703510109O19ONO45
19:00 20.404410108ONO21O10
20:00 18.905810115O16O5
21:00 17.506010113SSO11SO0
22:00 15.906510112ENE6S0
23:00 13.507610122SO6S0
minuit 11.808410121SO5ESE0

Graphique du 24-05-2019

 

Serveur OMMA